Aérodrome :
LOGIN :

S'inscrire | Disclaimer

   EN    FR    IT 

 










Légende :    VFR   VFR Marginal   IFR   IFR Intensif   IFR Très Intensif
Visi : 
Plafond : 
>= 8 km
>= 3000ft
5 à 8 km
1000 à 3000 ft
1500m à 5 km
500 à 1000 ft
800 à 1500m
200 à 500 ft
< 800m
< 200 ft
Symboles :   Orages  Brouillard  Fortes neiges  Fortes précipitations  Vent > 20 kt
SIGMETs :   Divers  Orages  Givrage  Turbulence  Onde Orograph.  Cendres Volcan.







- Altitude de l'aérodrome : 370 ft


EBBE - Beauvechain AB

DERNIER METAR :
  • 250825Z 26013KT 9999 SCT018 SCT042 12/08 Q1012 WHT BLU TEMPO WHT

METARs EXPIRÉS :
  • 250810Z 26013KT 9999 SCT018 SCT042 12/08 Q1012 WHT BLU TEMPO WHT
  • 250755Z 26011KT 9999 FEW014 SCT022 BKN045 12/09 Q1012 WHT WHT BECMG BLU
  • 250725Z 26011KT 9999 FEW010 SCT015 BKN040 12/09 Q1011 WHT WHT BECMG BLU
  • 250706Z 26011KT 9999 FEW010 SCT014 BKN035 12/10 Q1011 GRN WHT BECMG BLU
  • 250655Z 26010KT 9999 FEW005 SCT007 BKN012 12/10 Q1011 GRN WHT TEMPO YLO
  • 250625Z 26011KT 9999 FEW005 SCT007 BKN012 12/10 Q1011 GRN WHT TEMPO YLO

Prévision TAF périmée.
Pas de NOTAMs connus pour ce terrain.



MET'MAP, la Météo Aéronautique d'un coup d'oeil ! - Copyright ORBIFLY Décembre 2007 - Disclaimer

ORBIFLY MET'MAP TEAM :

Programmation & Développement : Alexandra Zaïnal
Conception & Développement : Baudouin d'Aumeries
Co-Programmation & Développement : Marc-Olivier Méhu
Soutien technique & logistique : Manuel Goepfert

Contact : metmap@orbifly.com




SOURCES & CREDITS :

   NOAA